TABS, Texas Automated Buoy System, NOAA HAZMAT, Ocean Observatory, Real Time Oceanographic Data Supporting Oil Spill Prevention and Response

Texas General Land Office  Texas General
 Land Office
 Oil Spill Prevention
 & Response
Texas Automated Buoy System
Real Time Ocean Observations
Supporting Oil Spill Prevention and Response since 1995
Geochemical and Environmental Research Group

TABS Buoy J -- Texas Automated Buoy System

TABS Buoy J Conditions at 05/28/2015 21:00 UTC (05/28/2015 16:00 CDT)
26° 11.4840'N   97° 3.0420'W
AA3900 DCS - sensor depth 2m
Anemometer height: 4m
Water Depth: 68 feet (20 meters)
Speed: 23.42 cm/s (0.46 kts) Direction: 73 °T (ENE) Water Temp: 28°C (82 °F)
System Voltage: 11.7 V Signal Strength: -2.8 dB Ping Count: 116
Wind: 5.7 m/s (11.1 kts)
          From 139°T (SE)
Air Temp: 27 °C (81 °F)
Relative Humidity:  86 %
Pressure: 1014.7 mb (29.96 inHg)

  


IMPORTANT: Notice to Mariners


Today's Meteorological Data (download)

   Date   |  Time  |  VEast   North    AirT  AtmPr     Gust   Comp   Tx   Ty    PAR   RelH
          |  (UTC) |  (m/s)|  (m/s)|   (°C)|  (mb) |  (m/s)|  (°M) |    |    |      |  (%) |
==========+========+=======+=======+=======+=======+=======+=======+====+====+======+======+
05/28/2015 00:00:00   -5.57    2.01    26.8 1013.91    7.08   222.5   -3    5    0.0   91.4
05/28/2015 00:30:00   -5.40    2.18    26.8 1014.12    7.68   224.0   -3    6    0.0   92.1
05/28/2015 01:00:00   -5.75    2.09    26.7 1014.28    7.43   223.0   -3    5    0.0   92.2
05/28/2015 01:30:00   -5.65    2.15    26.7 1014.62    7.58   224.5   -3    6    0.0   92.3
05/28/2015 02:00:00   -5.26    1.66    26.6 1015.02    6.74   214.4   -2    6    0.0   92.7
05/28/2015 02:30:00   -5.29    2.21    26.8 1015.07    6.73   228.8   -3    5    0.0   92.5
05/28/2015 03:00:00   -5.14    2.15    26.7 1015.25    6.81   227.3   -2    5    0.0   93.1
05/28/2015 03:30:00   -4.98    2.94    26.7 1015.64    7.08   224.0   -2    5    0.0   92.6
05/28/2015 04:00:00   -5.94    3.20    26.7 1015.58    8.18   233.1   -3    6    0.0   92.8
05/28/2015 04:30:00   -5.81    3.63    26.7 1015.82    8.08   236.0   -3    6    0.0   92.4
05/28/2015 05:00:00   -6.15    4.35    26.7 1015.69    9.08   237.6   -3    6    0.0   91.9
05/28/2015 05:30:00   -5.80    5.05    26.7 1015.37    9.77   242.3   -3    7    0.0   91.3
05/28/2015 06:00:00   -6.43    8.01    26.7 1015.46   14.18   244.8   -3    6    0.0   91.0
05/28/2015 06:30:00   -5.28    5.80    26.6 1015.64    9.32   244.7   -3    6    0.0   91.5
05/28/2015 07:00:00   -5.60    6.71    26.5 1014.81   10.39   246.8   -3    7    0.0   91.2
05/28/2015 07:30:00   -5.09    7.55    26.5 1014.81   13.58   250.8   -3    7    0.0   90.6
05/28/2015 08:00:00   -4.08    6.18    26.5 1014.92   12.25   253.8   -2    6    0.0   89.9
05/28/2015 08:30:00   -4.37    5.91    26.4 1014.37    9.51   249.1   -2    6    0.0   90.6
05/28/2015 09:00:00   -3.73    5.63    26.3 1014.60    8.57   255.0   -3    5    0.0   90.8
05/28/2015 09:30:00   -4.08    6.51    26.3 1014.14   10.53   254.3   -2    6    0.0   90.3
05/28/2015 10:00:00   -4.10    6.25    26.3 1014.18    9.40   252.9   -2    6    0.0   90.2
05/28/2015 10:30:00   -3.05    6.52    26.3 1014.40    9.25   264.4   -2    5    0.0   89.9
05/28/2015 11:00:00   -3.26    7.05    26.4 1014.45   12.41   257.9   -2    5    0.0   88.5
05/28/2015 11:30:00   -2.42    6.02    26.3 1014.63    7.96   264.9   -2    5    0.0   87.5
05/28/2015 12:00:00   -2.26    6.16    26.3 1014.91    7.82   280.3   -3    4    0.0   87.1
05/28/2015 12:30:00   -2.95    5.81    26.4 1015.05    8.04   278.0   -3    4    0.0   86.9
05/28/2015 13:00:00   -2.64    5.95    26.5 1015.61    8.08   267.7   -2    4    0.0   86.3
05/28/2015 13:30:00   -2.88    5.76    26.5 1015.67    7.88   269.0   -2    4    0.0   87.5
05/28/2015 14:00:00   -3.05    5.24    26.6 1016.02    7.70   266.7   -2    3    0.0   85.9
05/28/2015 14:30:00   -1.68    5.84    26.6 1016.23    7.51   325.5   -1    3    0.0   86.4
05/28/2015 15:00:00   -2.10    5.59    26.6 1016.29    7.02   287.9   -1    3    0.0   87.1
05/28/2015 15:30:00   -2.23    5.34    26.7 1016.58    7.53   280.6   -1    3    0.0   87.4
05/28/2015 16:00:00   -1.80    5.80    26.7 1016.56    7.90   318.0    0    3    0.0   88.1
05/28/2015 16:30:00   -1.62    5.60    26.7 1016.87    6.72   306.3    0    3    0.0   86.6
05/28/2015 17:00:00   -1.93    5.35    26.7 1016.83    7.38   300.5   -1    3    0.0   86.1
05/28/2015 17:30:00   -1.95    5.51    26.8 1016.76    6.88   294.9   -1    3    0.0   87.0
05/28/2015 18:00:00   -1.96    5.19    26.6 1016.82    6.53   293.2   -1    3    0.0   87.2
05/28/2015 18:30:00   -1.83    5.41    26.7 1016.34    6.92   287.0   -1    3    0.0   86.8
05/28/2015 19:00:00   -1.76    4.78    26.8 1015.97    6.20   311.9    0    3    0.0   85.6
05/28/2015 19:30:00   -2.37    4.87    26.8 1015.79    6.69   327.1    1    3    0.0   85.6
05/28/2015 20:00:00   -2.25    4.51    26.8 1015.57    6.33   318.5    0    2    0.0   85.4
05/28/2015 20:30:00   -3.12    3.76    26.9 1015.01    6.12    84.3   -1    5    0.0   85.9
05/28/2015 21:00:00   -3.77    4.31    27.0 1014.69    7.01   248.1   -2    3    0.0   85.6